Newbern, Virginia
Current Conditions -  °F | °C
As of 12:35 AM on Thursday 18 Dec 2014 (Local Time) from KPSK Reporting Station
Clear Clear  
Wind Chill: 26°   Ceiling: Unl
Heat Index: 34°   Visibility: 10mi
Dew Point: 27°   Wind: 12mph
Humidity: 75%   Direction: 290°WNW
Pressure: 30.1"   Gusts: NA
Location:  37.07°N, 80.69°W
Report Text: KPSK 180535Z AUTO 29010KT 10SM CLR 01/M03 A3010 RMK AO2 T00121027
Loading
Personal Weather Stations






























Interactive Weather Map New forecast layout! Learn more

10-Day Weather Forecast

Advertisements
Track Severe Weather on mobile